»·PEaware :: DHK72 KSAN-KLAS

DHK72 :: KSAN-KLAS

FLIGHT INFORMATION

Flight Status: Arrived
Operator:
DHL Air
More flights by this operator :: More flights under this callsign
Pilot: Ross C. (19908)
Aircraft: BOEING 757-200
(B752)
More flights by this aircraft type
Origin: KSAN San Diego Intl-Lindbergh
United States
Destination: KLAS McCarran Intl
United States
More flights between these airports :: More routes between these airports
Route: PADRZ2 CHKNN SEBBY/N0461F390 YELAH MISEN KEPEC6
File this flight plan on PilotEdge
Remarks: PBN / A1B3B4B5C4D4O4 DOF / 180729 REG / N538SB OPR / DHK PER / D RMK / TCAS SIMBRIEF
Altitude:
(Current/Filed)
40,000ft
Speed:
(Current/Filed)
458kts
Departed: 29-Jul-18 10:49 AM
Arrived: 29-Jul-18 11:51 AM
Distance/Time
Traveled:
225nm/1:02
Distance/Time
To Go:
Arrived

Flight Plot

Page will automatically refresh every two minutes.

Flight plan parsing failed; only flown route is shown


Map Options




Map Legend


Flown Route
Filed Route
Departure Airport
Arrival Airport
Navaid (VOR, NDB)
Fix

Horizontal Profiles

Position Reports

Time Latitude Longitude Heading Altitude Ground
Speed
29-Jul-18 09:59 32.736654 -117.185022 355 25ft 0kts
29-Jul-18 10:00 32.736654 -117.185022 355 25ft 0kts
29-Jul-18 10:01 32.736654 -117.185022 355 25ft 0kts
29-Jul-18 10:02 32.736654 -117.185022 355 25ft 0kts
29-Jul-18 10:03 32.736654 -117.185022 355 25ft 0kts
29-Jul-18 10:04 32.736654 -117.185022 355 25ft 0kts
29-Jul-18 10:05 32.736654 -117.185022 355 25ft 0kts
29-Jul-18 10:06 32.736654 -117.185022 355 25ft 0kts
29-Jul-18 10:07 32.736654 -117.185022 355 25ft 0kts
29-Jul-18 10:08 32.736654 -117.185022 355 25ft 0kts
29-Jul-18 10:09 32.736654 -117.185022 355 25ft 0kts
29-Jul-18 10:10 32.736654 -117.185022 355 25ft 0kts
29-Jul-18 10:11 32.736654 -117.185022 355 25ft 0kts
29-Jul-18 10:12 32.736654 -117.185022 355 25ft 0kts
29-Jul-18 10:13 32.736654 -117.185022 355 25ft 0kts
29-Jul-18 10:14 32.736654 -117.185022 355 25ft 0kts
29-Jul-18 10:15 32.736654 -117.185022 355 25ft 0kts
29-Jul-18 10:16 32.736654 -117.185022 355 25ft 0kts
29-Jul-18 10:17 32.736654 -117.185022 355 25ft 0kts
29-Jul-18 10:18 32.736654 -117.185022 355 25ft 0kts
29-Jul-18 10:19 32.736654 -117.185022 355 25ft 0kts
29-Jul-18 10:20 32.736654 -117.185022 355 25ft 0kts
29-Jul-18 10:21 32.736654 -117.185022 355 25ft 0kts
29-Jul-18 10:22 32.736654 -117.185022 355 25ft 0kts
29-Jul-18 10:23 32.736654 -117.185022 355 25ft 0kts
29-Jul-18 10:24 32.736350 -117.184995 355 25ft 2kts
29-Jul-18 10:25 32.736171 -117.185368 150 25ft 1kts
29-Jul-18 10:26 32.736216 -117.185400 144 25ft 0kts
29-Jul-18 10:27 32.736216 -117.185400 145 25ft 0kts
29-Jul-18 10:28 32.736215 -117.185400 144 25ft 0kts
29-Jul-18 10:29 32.736215 -117.185400 144 25ft 0kts
29-Jul-18 10:30 32.736215 -117.185400 144 25ft 0kts
29-Jul-18 10:31 32.736215 -117.185400 144 25ft 0kts
29-Jul-18 10:32 32.736215 -117.185400 144 25ft 0kts
29-Jul-18 10:33 32.736215 -117.185400 144 25ft 0kts
29-Jul-18 10:34 32.736215 -117.185400 144 25ft 0kts
29-Jul-18 10:35 32.735458 -117.184767 144 25ft 7kts
29-Jul-18 10:36 32.732869 -117.181961 105 24ft 28kts
29-Jul-18 10:37 32.731040 -117.175610 128 29ft 0kts
29-Jul-18 10:38 32.731021 -117.175582 128 29ft 0kts
29-Jul-18 10:39 32.731021 -117.175582 128 29ft 0kts
29-Jul-18 10:40 32.731021 -117.175582 128 29ft 0kts
29-Jul-18 10:41 32.731021 -117.175582 128 29ft 0kts
29-Jul-18 10:42 32.731021 -117.175582 128 29ft 0kts
29-Jul-18 10:43 32.731021 -117.175582 128 29ft 0kts
29-Jul-18 10:44 32.731021 -117.175582 128 29ft 0kts
29-Jul-18 10:45 32.731021 -117.175582 128 29ft 0kts
29-Jul-18 10:46 32.731021 -117.175582 128 29ft 0kts
29-Jul-18 10:47 32.731021 -117.175582 128 29ft 0kts
29-Jul-18 10:48 32.731017 -117.175576 128 29ft 1kts
29-Jul-18 10:49 32.730164 -117.175695 286 28ft 0kts
29-Jul-18 10:50 32.739741 -117.209223 293 1858ft 149kts
29-Jul-18 10:51 32.768447 -117.259931 304 4207ft 199kts
29-Jul-18 10:52 32.801235 -117.314175 308 7082ft 207kts
29-Jul-18 10:53 32.836294 -117.372490 311 9719ft 216kts
29-Jul-18 10:54 32.872026 -117.431733 306 11821ft 237kts
29-Jul-18 10:55 32.916411 -117.501812 306 13531ft 318kts
29-Jul-18 10:56 32.978843 -117.599215 306 15830ft 404kts
29-Jul-18 10:57 33.048197 -117.707601 307 19012ft 434kts
29-Jul-18 10:58 33.107905 -117.775420 319 18784ft 425kts
29-Jul-18 10:59 33.196963 -117.866491 320 21556ft 441kts
29-Jul-18 11:00 33.291332 -117.958553 320 24549ft 461kts
29-Jul-18 11:01 33.386776 -118.052055 320 26979ft 480kts
29-Jul-18 11:02 33.489334 -118.152703 319 29227ft 495kts
29-Jul-18 11:03 33.599730 -118.249296 334 31773ft 499kts
29-Jul-18 11:04 33.731186 -118.270728 9 33980ft 502kts
29-Jul-18 11:05 33.851403 -118.200396 45 35869ft 497kts
29-Jul-18 11:06 33.912538 -118.092458 64 37115ft 491kts
29-Jul-18 11:07 33.985691 -117.954571 58 38416ft 495kts
29-Jul-18 11:08 34.063955 -117.819658 57 39490ft 496kts
29-Jul-18 11:09 34.140289 -117.701720 52 39983ft 498kts
29-Jul-18 11:10 34.222166 -117.582143 53 39995ft 498kts
29-Jul-18 11:11 34.306973 -117.457547 53 40062ft 499kts
29-Jul-18 11:12 34.392138 -117.332111 53 40064ft 499kts
29-Jul-18 11:13 34.479902 -117.202341 53 40064ft 500kts
29-Jul-18 11:14 34.567578 -117.071846 54 39985ft 500kts
29-Jul-18 11:15 34.649916 -116.948529 53 39985ft 500kts
29-Jul-18 11:16 34.736615 -116.818730 53 39987ft 501kts
29-Jul-18 11:17 34.823449 -116.687591 53 39988ft 501kts
29-Jul-18 11:18 34.925752 -116.574828 40 38433ft 487kts
29-Jul-18 11:19 35.030367 -116.473207 39 35939ft 482kts
29-Jul-18 11:20 35.105778 -116.399495 39 34070ft 484kts
29-Jul-18 11:21 35.165820 -116.342142 39 32593ft 484kts
29-Jul-18 11:22 35.271471 -116.240507 39 30001ft 484kts
29-Jul-18 11:23 35.375091 -116.140963 39 27460ft 463kts
29-Jul-18 11:24 35.473907 -116.046696 39 25073ft 443kts
29-Jul-18 11:25 35.568589 -115.954825 39 22764ft 428kts
29-Jul-18 11:26 35.656322 -115.870236 39 20644ft 414kts
29-Jul-18 11:27 35.743050 -115.785905 40 18834ft 405kts
29-Jul-18 11:28 35.829021 -115.701266 39 16458ft 394kts
29-Jul-18 11:29 35.913176 -115.618716 38 14281ft 385kts
29-Jul-18 11:30 35.979287 -115.529740 66 12210ft 373kts
29-Jul-18 11:31 36.010793 -115.435469 68 11102ft 306kts
29-Jul-18 11:32 36.027373 -115.348259 96 10743ft 283kts
29-Jul-18 11:33 36.021319 -115.257304 96 9699ft 271kts
29-Jul-18 11:34 36.015008 -115.167539 95 8596ft 265kts
29-Jul-18 11:35 36.009448 -115.085798 93 8054ft 242kts
29-Jul-18 11:36 36.004595 -115.004323 93 7983ft 244kts
29-Jul-18 11:37 36.000404 -114.934164 93 7957ft 238kts
29-Jul-18 11:38 35.995665 -114.855625 94 8006ft 230kts
29-Jul-18 11:39 35.990710 -114.778187 96 8012ft 234kts
29-Jul-18 11:40 35.985234 -114.699138 99 8014ft 233kts
29-Jul-18 11:41 35.979250 -114.630253 88 8005ft 190kts
29-Jul-18 11:42 36.023504 -114.603894 8 8010ft 207kts
29-Jul-18 11:43 36.062942 -114.639965 276 8018ft 208kts
29-Jul-18 11:44 36.070414 -114.710211 273 8031ft 206kts
29-Jul-18 11:45 36.072466 -114.780450 267 7274ft 204kts
29-Jul-18 11:46 36.073134 -114.848718 269 6251ft 199kts
29-Jul-18 11:47 36.073426 -114.910960 269 5342ft 197kts
29-Jul-18 11:48 36.073566 -114.973622 269 4481ft 195kts
29-Jul-18 11:49 36.073627 -115.037044 270 3492ft 177kts
29-Jul-18 11:50 36.073704 -115.086326 272 2716ft 145kts
29-Jul-18 11:51 36.073691 -115.131637 271 2066ft 132kts
29-Jul-18 11:52 36.074688 -115.145862 300 2106ft 0kts
29-Jul-18 11:53 36.075392 -115.146505 356 2108ft 14kts
29-Jul-18 11:54 36.077532 -115.140577 89 2086ft 35kts
29-Jul-18 11:55 36.077561 -115.130341 88 2055ft 39kts
29-Jul-18 11:56 36.079634 -115.125621 88 2041ft 2kts
29-Jul-18 11:57 36.079634 -115.125612 88 2041ft 0kts
29-Jul-18 11:58 36.079634 -115.125612 88 2041ft 0kts

Navigation Log

Ident Type
Flight plan parsing failed, navigation log unavailable